sensor_id;sensor_type;location;lat;lon;timestamp;temperature;humidity
6865;DHT22;3471;49.678;8.388;2023-05-21T00:00:14;17.70;99.90
6865;DHT22;3471;49.678;8.388;2023-05-21T00:02:40;17.70;99.90
6865;DHT22;3471;49.678;8.388;2023-05-21T00:05:07;17.70;99.90
6865;DHT22;3471;49.678;8.388;2023-05-21T00:07:37;17.60;99.90
6865;DHT22;3471;49.678;8.388;2023-05-21T00:10:03;17.60;99.90
6865;DHT22;3471;49.678;8.388;2023-05-21T00:12:29;17.60;99.90
6865;DHT22;3471;49.678;8.388;2023-05-21T00:14:56;17.60;99.90
6865;DHT22;3471;49.678;8.388;2023-05-21T00:17:22;17.50;99.90
6865;DHT22;3471;49.678;8.388;2023-05-21T00:19:48;17.50;99.90
6865;DHT22;3471;49.678;8.388;2023-05-21T00:22:14;17.50;99.90
6865;DHT22;3471;49.678;8.388;2023-05-21T00:24:40;17.40;99.90
6865;DHT22;3471;49.678;8.388;2023-05-21T00:27:06;17.40;99.90
6865;DHT22;3471;49.678;8.388;2023-05-21T00:29:31;17.40;99.90
6865;DHT22;3471;49.678;8.388;2023-05-21T00:31:57;17.40;99.90
6865;DHT22;3471;49.678;8.388;2023-05-21T00:34:22;17.30;99.90
6865;DHT22;3471;49.678;8.388;2023-05-21T00:36:48;17.40;99.90
6865;DHT22;3471;49.678;8.388;2023-05-21T00:39:13;17.30;99.90
6865;DHT22;3471;49.678;8.388;2023-05-21T00:41:40;17.30;99.90
6865;DHT22;3471;49.678;8.388;2023-05-21T00:44:07;17.30;99.90
6865;DHT22;3471;49.678;8.388;2023-05-21T00:46:34;17.30;99.90
6865;DHT22;3471;49.678;8.388;2023-05-21T00:49:00;17.30;99.90
6865;DHT22;3471;49.678;8.388;2023-05-21T00:51:26;17.30;99.90
6865;DHT22;3471;49.678;8.388;2023-05-21T00:53:55;17.20;99.90
6865;DHT22;3471;49.678;8.388;2023-05-21T00:56:22;17.20;99.90
6865;DHT22;3471;49.678;8.388;2023-05-21T00:58:49;17.20;99.90
6865;DHT22;3471;49.678;8.388;2023-05-21T01:01:16;17.20;99.90
6865;DHT22;3471;49.678;8.388;2023-05-21T01:03:42;17.20;99.90
6865;DHT22;3471;49.678;8.388;2023-05-21T01:06:10;17.20;99.90
6865;DHT22;3471;49.678;8.388;2023-05-21T01:08:36;17.20;99.90
6865;DHT22;3471;49.678;8.388;2023-05-21T01:11:04;17.10;99.90
6865;DHT22;3471;49.678;8.388;2023-05-21T01:13:31;17.10;99.90
6865;DHT22;3471;49.678;8.388;2023-05-21T01:15:57;17.10;99.90
6865;DHT22;3471;49.678;8.388;2023-05-21T01:18:24;17.10;99.90
6865;DHT22;3471;49.678;8.388;2023-05-21T01:20:51;17.10;99.90
6865;DHT22;3471;49.678;8.388;2023-05-21T01:23:18;17.10;99.90
6865;DHT22;3471;49.678;8.388;2023-05-21T01:25:44;17.10;99.90
6865;DHT22;3471;49.678;8.388;2023-05-21T01:28:10;17.10;99.90
6865;DHT22;3471;49.678;8.388;2023-05-21T01:30:37;17.00;99.90
6865;DHT22;3471;49.678;8.388;2023-05-21T01:35:49;17.00;99.90
6865;DHT22;3471;49.678;8.388;2023-05-21T01:38:28;17.00;99.90
6865;DHT22;3471;49.678;8.388;2023-05-21T01:40:58;17.00;99.90
6865;DHT22;3471;49.678;8.388;2023-05-21T01:43:29;17.00;99.90
6865;DHT22;3471;49.678;8.388;2023-05-21T01:45:56;16.90;99.90
6865;DHT22;3471;49.678;8.388;2023-05-21T01:48:27;16.90;99.90
6865;DHT22;3471;49.678;8.388;2023-05-21T01:50:56;17.00;99.90
6865;DHT22;3471;49.678;8.388;2023-05-21T01:53:22;16.90;99.90
6865;DHT22;3471;49.678;8.388;2023-05-21T01:55:48;16.90;99.90
6865;DHT22;3471;49.678;8.388;2023-05-21T01:58:14;16.90;99.90
6865;DHT22;3471;49.678;8.388;2023-05-21T02:00:43;16.90;99.90
6865;DHT22;3471;49.678;8.388;2023-05-21T02:03:10;16.90;99.90
6865;DHT22;3471;49.678;8.388;2023-05-21T02:05:35;16.90;99.90
6865;DHT22;3471;49.678;8.388;2023-05-21T02:08:01;16.90;99.90
6865;DHT22;3471;49.678;8.388;2023-05-21T02:10:27;16.90;99.90
6865;DHT22;3471;49.678;8.388;2023-05-21T02:12:52;16.80;99.90
6865;DHT22;3471;49.678;8.388;2023-05-21T02:15:18;16.90;99.90
6865;DHT22;3471;49.678;8.388;2023-05-21T02:17:47;16.90;99.90
6865;DHT22;3471;49.678;8.388;2023-05-21T02:20:16;16.90;99.90
6865;DHT22;3471;49.678;8.388;2023-05-21T02:22:45;16.90;99.90
6865;DHT22;3471;49.678;8.388;2023-05-21T02:25:13;16.90;99.90
6865;DHT22;3471;49.678;8.388;2023-05-21T02:27:41;16.90;99.90
6865;DHT22;3471;49.678;8.388;2023-05-21T02:30:09;16.90;99.90
6865;DHT22;3471;49.678;8.388;2023-05-21T02:32:35;16.90;99.90
6865;DHT22;3471;49.678;8.388;2023-05-21T02:35:02;16.90;99.90
6865;DHT22;3471;49.678;8.388;2023-05-21T02:37:29;16.90;99.90
6865;DHT22;3471;49.678;8.388;2023-05-21T02:39:59;16.80;99.90
6865;DHT22;3471;49.678;8.388;2023-05-21T02:42:25;16.80;99.90
6865;DHT22;3471;49.678;8.388;2023-05-21T02:44:51;16.80;99.90
6865;DHT22;3471;49.678;8.388;2023-05-21T02:47:20;16.80;99.90
6865;DHT22;3471;49.678;8.388;2023-05-21T02:49:49;16.80;99.90
6865;DHT22;3471;49.678;8.388;2023-05-21T02:52:15;16.80;99.90
6865;DHT22;3471;49.678;8.388;2023-05-21T02:54:43;16.80;99.90
6865;DHT22;3471;49.678;8.388;2023-05-21T02:57:08;16.80;99.90
6865;DHT22;3471;49.678;8.388;2023-05-21T02:59:34;16.80;99.90
6865;DHT22;3471;49.678;8.388;2023-05-21T03:02:00;16.80;99.90
6865;DHT22;3471;49.678;8.388;2023-05-21T03:04:25;16.80;99.90
6865;DHT22;3471;49.678;8.388;2023-05-21T03:06:53;16.80;99.90
6865;DHT22;3471;49.678;8.388;2023-05-21T03:09:22;16.80;99.90
6865;DHT22;3471;49.678;8.388;2023-05-21T03:11:49;16.80;99.90
6865;DHT22;3471;49.678;8.388;2023-05-21T03:14:14;16.80;99.90
6865;DHT22;3471;49.678;8.388;2023-05-21T03:16:43;16.80;99.90
6865;DHT22;3471;49.678;8.388;2023-05-21T03:19:10;16.80;99.90
6865;DHT22;3471;49.678;8.388;2023-05-21T03:21:36;16.80;99.90
6865;DHT22;3471;49.678;8.388;2023-05-21T03:24:04;16.80;99.90
6865;DHT22;3471;49.678;8.388;2023-05-21T03:26:30;16.80;99.90
6865;DHT22;3471;49.678;8.388;2023-05-21T03:28:56;16.80;99.90
6865;DHT22;3471;49.678;8.388;2023-05-21T03:31:25;16.80;99.90
6865;DHT22;3471;49.678;8.388;2023-05-21T03:33:51;16.80;99.90
6865;DHT22;3471;49.678;8.388;2023-05-21T03:36:18;16.80;99.90
6865;DHT22;3471;49.678;8.388;2023-05-21T03:38:43;16.80;99.90
6865;DHT22;3471;49.678;8.388;2023-05-21T03:41:09;16.80;99.90
6865;DHT22;3471;49.678;8.388;2023-05-21T03:43:35;16.80;99.90
6865;DHT22;3471;49.678;8.388;2023-05-21T03:46:01;16.80;99.90
6865;DHT22;3471;49.678;8.388;2023-05-21T03:48:26;16.80;99.90
6865;DHT22;3471;49.678;8.388;2023-05-21T03:50:52;16.80;99.90
6865;DHT22;3471;49.678;8.388;2023-05-21T03:53:17;16.70;99.90
6865;DHT22;3471;49.678;8.388;2023-05-21T03:55:43;16.70;99.90
6865;DHT22;3471;49.678;8.388;2023-05-21T03:58:09;16.70;99.90
6865;DHT22;3471;49.678;8.388;2023-05-21T04:00:35;16.70;99.90
6865;DHT22;3471;49.678;8.388;2023-05-21T04:03:02;16.80;99.90
6865;DHT22;3471;49.678;8.388;2023-05-21T04:05:28;16.80;99.90
6865;DHT22;3471;49.678;8.388;2023-05-21T04:07:53;16.80;99.90
6865;DHT22;3471;49.678;8.388;2023-05-21T04:10:19;16.90;99.90
6865;DHT22;3471;49.678;8.388;2023-05-21T04:12:45;16.90;99.90
6865;DHT22;3471;49.678;8.388;2023-05-21T04:15:13;16.90;99.90
6865;DHT22;3471;49.678;8.388;2023-05-21T04:17:43;16.90;99.90
6865;DHT22;3471;49.678;8.388;2023-05-21T04:20:10;16.90;99.90
6865;DHT22;3471;49.678;8.388;2023-05-21T04:22:36;16.90;99.90
6865;DHT22;3471;49.678;8.388;2023-05-21T04:25:02;16.90;99.90
6865;DHT22;3471;49.678;8.388;2023-05-21T04:27:27;16.90;99.90
6865;DHT22;3471;49.678;8.388;2023-05-21T04:29:53;16.90;99.90
6865;DHT22;3471;49.678;8.388;2023-05-21T04:32:19;16.90;99.90
6865;DHT22;3471;49.678;8.388;2023-05-21T04:34:45;16.90;99.90
6865;DHT22;3471;49.678;8.388;2023-05-21T04:37:10;17.00;99.90
6865;DHT22;3471;49.678;8.388;2023-05-21T04:39:36;17.00;99.90
6865;DHT22;3471;49.678;8.388;2023-05-21T04:42:02;17.00;99.90
6865;DHT22;3471;49.678;8.388;2023-05-21T04:44:28;17.00;99.90
6865;DHT22;3471;49.678;8.388;2023-05-21T04:46:54;17.00;99.90
6865;DHT22;3471;49.678;8.388;2023-05-21T04:49:21;17.00;99.90
6865;DHT22;3471;49.678;8.388;2023-05-21T04:51:47;17.00;99.90
6865;DHT22;3471;49.678;8.388;2023-05-21T04:54:17;17.10;99.90
6865;DHT22;3471;49.678;8.388;2023-05-21T04:56:43;17.10;99.90
6865;DHT22;3471;49.678;8.388;2023-05-21T04:59:08;17.10;99.90
6865;DHT22;3471;49.678;8.388;2023-05-21T05:01:34;17.10;99.90
6865;DHT22;3471;49.678;8.388;2023-05-21T05:04:02;17.10;99.90
6865;DHT22;3471;49.678;8.388;2023-05-21T05:06:28;17.10;99.90
6865;DHT22;3471;49.678;8.388;2023-05-21T05:08:54;17.10;99.90
6865;DHT22;3471;49.678;8.388;2023-05-21T05:11:19;17.10;99.90
6865;DHT22;3471;49.678;8.388;2023-05-21T05:13:45;17.10;99.90
6865;DHT22;3471;49.678;8.388;2023-05-21T05:16:10;17.20;99.90
6865;DHT22;3471;49.678;8.388;2023-05-21T05:18:37;17.20;99.90
6865;DHT22;3471;49.678;8.388;2023-05-21T05:21:02;17.20;99.90
6865;DHT22;3471;49.678;8.388;2023-05-21T05:23:28;17.20;99.90
6865;DHT22;3471;49.678;8.388;2023-05-21T05:25:53;17.20;99.90
6865;DHT22;3471;49.678;8.388;2023-05-21T05:28:19;17.30;99.90
6865;DHT22;3471;49.678;8.388;2023-05-21T05:30:45;17.30;99.90
6865;DHT22;3471;49.678;8.388;2023-05-21T05:33:10;17.30;99.90
6865;DHT22;3471;49.678;8.388;2023-05-21T05:35:36;17.40;99.90
6865;DHT22;3471;49.678;8.388;2023-05-21T05:38:02;17.40;99.90
6865;DHT22;3471;49.678;8.388;2023-05-21T05:40:27;17.40;99.90
6865;DHT22;3471;49.678;8.388;2023-05-21T05:42:53;17.50;99.90
6865;DHT22;3471;49.678;8.388;2023-05-21T05:45:19;17.50;99.90
6865;DHT22;3471;49.678;8.388;2023-05-21T05:47:44;17.50;99.90
6865;DHT22;3471;49.678;8.388;2023-05-21T05:50:10;17.60;99.90
6865;DHT22;3471;49.678;8.388;2023-05-21T05:52:36;17.50;99.90
6865;DHT22;3471;49.678;8.388;2023-05-21T05:55:02;17.60;99.90
6865;DHT22;3471;49.678;8.388;2023-05-21T05:57:28;17.60;99.90
6865;DHT22;3471;49.678;8.388;2023-05-21T05:59:53;17.60;99.90
6865;DHT22;3471;49.678;8.388;2023-05-21T06:02:19;17.60;99.90
6865;DHT22;3471;49.678;8.388;2023-05-21T06:04:45;17.60;99.90
6865;DHT22;3471;49.678;8.388;2023-05-21T06:07:10;17.70;99.90
6865;DHT22;3471;49.678;8.388;2023-05-21T06:09:36;17.70;99.90
6865;DHT22;3471;49.678;8.388;2023-05-21T06:12:04;17.80;99.90
6865;DHT22;3471;49.678;8.388;2023-05-21T06:14:30;17.80;99.90
6865;DHT22;3471;49.678;8.388;2023-05-21T06:16:55;17.80;99.90
6865;DHT22;3471;49.678;8.388;2023-05-21T06:19:21;17.80;99.90
6865;DHT22;3471;49.678;8.388;2023-05-21T06:21:47;17.90;99.90
6865;DHT22;3471;49.678;8.388;2023-05-21T06:24:12;17.90;99.90
6865;DHT22;3471;49.678;8.388;2023-05-21T06:26:38;18.00;99.90
6865;DHT22;3471;49.678;8.388;2023-05-21T06:29:03;18.10;99.90
6865;DHT22;3471;49.678;8.388;2023-05-21T06:31:29;18.20;99.90
6865;DHT22;3471;49.678;8.388;2023-05-21T06:33:57;18.30;99.90
6865;DHT22;3471;49.678;8.388;2023-05-21T06:36:23;18.50;99.90
6865;DHT22;3471;49.678;8.388;2023-05-21T06:38:54;18.60;99.90
6865;DHT22;3471;49.678;8.388;2023-05-21T06:41:20;18.80;99.90
6865;DHT22;3471;49.678;8.388;2023-05-21T06:43:45;19.00;99.90
6865;DHT22;3471;49.678;8.388;2023-05-21T06:46:11;19.20;99.90
6865;DHT22;3471;49.678;8.388;2023-05-21T06:48:36;19.30;99.90
6865;DHT22;3471;49.678;8.388;2023-05-21T06:51:02;19.50;99.90
6865;DHT22;3471;49.678;8.388;2023-05-21T06:53:28;19.60;99.90
6865;DHT22;3471;49.678;8.388;2023-05-21T06:55:53;19.70;99.90
6865;DHT22;3471;49.678;8.388;2023-05-21T06:58:19;19.90;99.90
6865;DHT22;3471;49.678;8.388;2023-05-21T07:00:46;20.10;99.90
6865;DHT22;3471;49.678;8.388;2023-05-21T07:03:11;20.20;99.90
6865;DHT22;3471;49.678;8.388;2023-05-21T07:05:37;20.40;99.90
6865;DHT22;3471;49.678;8.388;2023-05-21T07:08:02;20.60;99.90
6865;DHT22;3471;49.678;8.388;2023-05-21T07:10:28;20.80;99.90
6865;DHT22;3471;49.678;8.388;2023-05-21T07:12:53;21.00;99.90
6865;DHT22;3471;49.678;8.388;2023-05-21T07:15:19;21.10;99.90
6865;DHT22;3471;49.678;8.388;2023-05-21T07:17:45;21.30;99.90
6865;DHT22;3471;49.678;8.388;2023-05-21T07:20:11;21.40;99.90
6865;DHT22;3471;49.678;8.388;2023-05-21T07:22:37;21.40;99.90
6865;DHT22;3471;49.678;8.388;2023-05-21T07:25:04;21.50;99.90
6865;DHT22;3471;49.678;8.388;2023-05-21T07:27:30;21.60;99.90
6865;DHT22;3471;49.678;8.388;2023-05-21T07:29:56;21.70;99.90
6865;DHT22;3471;49.678;8.388;2023-05-21T07:32:21;21.80;99.90
6865;DHT22;3471;49.678;8.388;2023-05-21T07:34:47;21.90;99.90
6865;DHT22;3471;49.678;8.388;2023-05-21T07:37:13;22.00;99.90
6865;DHT22;3471;49.678;8.388;2023-05-21T07:39:38;22.10;99.90
6865;DHT22;3471;49.678;8.388;2023-05-21T07:42:04;22.20;99.90
6865;DHT22;3471;49.678;8.388;2023-05-21T07:44:30;22.30;99.90
6865;DHT22;3471;49.678;8.388;2023-05-21T07:46:56;22.40;99.90
6865;DHT22;3471;49.678;8.388;2023-05-21T07:49:22;22.50;99.90
6865;DHT22;3471;49.678;8.388;2023-05-21T07:51:48;22.60;99.90
6865;DHT22;3471;49.678;8.388;2023-05-21T07:54:13;22.70;99.90
6865;DHT22;3471;49.678;8.388;2023-05-21T07:56:39;22.80;99.90
6865;DHT22;3471;49.678;8.388;2023-05-21T07:59:04;22.90;99.90
6865;DHT22;3471;49.678;8.388;2023-05-21T08:01:30;23.00;99.90
6865;DHT22;3471;49.678;8.388;2023-05-21T08:03:57;23.20;99.90
6865;DHT22;3471;49.678;8.388;2023-05-21T08:06:24;23.20;99.90
6865;DHT22;3471;49.678;8.388;2023-05-21T08:08:51;23.30;99.90
6865;DHT22;3471;49.678;8.388;2023-05-21T08:11:18;23.50;99.90
6865;DHT22;3471;49.678;8.388;2023-05-21T08:13:44;23.60;99.90
6865;DHT22;3471;49.678;8.388;2023-05-21T08:16:11;23.70;99.90
6865;DHT22;3471;49.678;8.388;2023-05-21T08:18:37;23.90;99.90
6865;DHT22;3471;49.678;8.388;2023-05-21T08:21:03;24.00;99.90
6865;DHT22;3471;49.678;8.388;2023-05-21T08:23:29;24.20;99.90
6865;DHT22;3471;49.678;8.388;2023-05-21T08:25:55;24.40;99.90
6865;DHT22;3471;49.678;8.388;2023-05-21T08:28:21;24.60;99.90
6865;DHT22;3471;49.678;8.388;2023-05-21T08:30:47;24.70;99.90
6865;DHT22;3471;49.678;8.388;2023-05-21T08:33:13;24.90;99.90
6865;DHT22;3471;49.678;8.388;2023-05-21T08:35:39;25.10;99.90
6865;DHT22;3471;49.678;8.388;2023-05-21T08:38:04;25.30;99.90
6865;DHT22;3471;49.678;8.388;2023-05-21T08:40:30;25.50;99.90
6865;DHT22;3471;49.678;8.388;2023-05-21T08:42:55;25.60;99.90
6865;DHT22;3471;49.678;8.388;2023-05-21T08:45:22;25.80;99.90
6865;DHT22;3471;49.678;8.388;2023-05-21T08:47:55;25.80;99.90
6865;DHT22;3471;49.678;8.388;2023-05-21T08:50:26;25.90;99.90
6865;DHT22;3471;49.678;8.388;2023-05-21T08:52:52;26.00;99.90
6865;DHT22;3471;49.678;8.388;2023-05-21T08:55:20;25.90;99.90
6865;DHT22;3471;49.678;8.388;2023-05-21T08:57:46;26.00;99.90
6865;DHT22;3471;49.678;8.388;2023-05-21T09:00:12;26.10;99.90
6865;DHT22;3471;49.678;8.388;2023-05-21T09:02:39;26.10;99.90
6865;DHT22;3471;49.678;8.388;2023-05-21T09:05:05;26.20;99.90
6865;DHT22;3471;49.678;8.388;2023-05-21T09:07:38;26.20;99.90
6865;DHT22;3471;49.678;8.388;2023-05-21T09:10:07;26.20;99.90
6865;DHT22;3471;49.678;8.388;2023-05-21T09:12:37;26.20;99.90
6865;DHT22;3471;49.678;8.388;2023-05-21T09:15:02;26.30;99.90
6865;DHT22;3471;49.678;8.388;2023-05-21T09:17:28;26.30;99.90
6865;DHT22;3471;49.678;8.388;2023-05-21T09:20:13;26.40;99.90
6865;DHT22;3471;49.678;8.388;2023-05-21T09:22:47;26.50;99.90
6865;DHT22;3471;49.678;8.388;2023-05-21T09:25:14;26.60;99.90
6865;DHT22;3471;49.678;8.388;2023-05-21T09:27:40;26.60;99.90
6865;DHT22;3471;49.678;8.388;2023-05-21T09:30:11;26.60;99.90
6865;DHT22;3471;49.678;8.388;2023-05-21T09:32:38;26.50;99.90
6865;DHT22;3471;49.678;8.388;2023-05-21T09:35:07;26.50;99.90
6865;DHT22;3471;49.678;8.388;2023-05-21T09:37:44;26.40;99.90
6865;DHT22;3471;49.678;8.388;2023-05-21T09:40:19;26.50;99.90
6865;DHT22;3471;49.678;8.388;2023-05-21T09:42:46;26.50;99.90
6865;DHT22;3471;49.678;8.388;2023-05-21T09:45:17;26.60;99.90
6865;DHT22;3471;49.678;8.388;2023-05-21T09:47:45;26.70;99.90
6865;DHT22;3471;49.678;8.388;2023-05-21T09:52:44;27.00;99.90
6865;DHT22;3471;49.678;8.388;2023-05-21T09:55:11;27.00;99.90
6865;DHT22;3471;49.678;8.388;2023-05-21T09:57:44;27.00;99.90
6865;DHT22;3471;49.678;8.388;2023-05-21T10:00:26;26.90;99.90
6865;DHT22;3471;49.678;8.388;2023-05-21T10:02:54;26.80;99.90
6865;DHT22;3471;49.678;8.388;2023-05-21T10:05:25;26.80;99.90
6865;DHT22;3471;49.678;8.388;2023-05-21T10:07:52;26.80;99.90
6865;DHT22;3471;49.678;8.388;2023-05-21T10:10:20;26.70;99.90
6865;DHT22;3471;49.678;8.388;2023-05-21T10:12:51;26.70;99.90
6865;DHT22;3471;49.678;8.388;2023-05-21T10:15:22;26.70;99.90
6865;DHT22;3471;49.678;8.388;2023-05-21T10:17:49;26.90;99.90
6865;DHT22;3471;49.678;8.388;2023-05-21T10:20:15;27.10;99.90
6865;DHT22;3471;49.678;8.388;2023-05-21T10:22:41;27.20;99.90
6865;DHT22;3471;49.678;8.388;2023-05-21T10:25:08;27.40;99.90
6865;DHT22;3471;49.678;8.388;2023-05-21T10:27:37;27.60;99.90
6865;DHT22;3471;49.678;8.388;2023-05-21T10:30:04;27.70;99.90
6865;DHT22;3471;49.678;8.388;2023-05-21T10:32:31;27.90;99.90
6865;DHT22;3471;49.678;8.388;2023-05-21T10:34:56;28.10;99.90
6865;DHT22;3471;49.678;8.388;2023-05-21T10:37:23;28.30;99.90
6865;DHT22;3471;49.678;8.388;2023-05-21T10:39:55;28.50;99.90
6865;DHT22;3471;49.678;8.388;2023-05-21T10:56:37;29.40;99.90
6865;DHT22;3471;49.678;8.388;2023-05-21T11:01:36;29.70;99.90
6865;DHT22;3471;49.678;8.388;2023-05-21T11:04:03;29.80;99.90
6865;DHT22;3471;49.678;8.388;2023-05-21T11:06:29;30.00;99.90
6865;DHT22;3471;49.678;8.388;2023-05-21T11:08:55;30.10;99.90
6865;DHT22;3471;49.678;8.388;2023-05-21T11:14:36;30.40;99.90
6865;DHT22;3471;49.678;8.388;2023-05-21T11:17:11;30.40;99.90
6865;DHT22;3471;49.678;8.388;2023-05-21T11:19:42;30.50;99.90
6865;DHT22;3471;49.678;8.388;2023-05-21T11:22:28;30.50;99.90
6865;DHT22;3471;49.678;8.388;2023-05-21T11:24:57;30.70;99.90
6865;DHT22;3471;49.678;8.388;2023-05-21T11:27:34;30.80;99.90
6865;DHT22;3471;49.678;8.388;2023-05-21T11:32:31;31.30;99.90
6865;DHT22;3471;49.678;8.388;2023-05-21T11:34:59;31.50;99.90
6865;DHT22;3471;49.678;8.388;2023-05-21T11:37:26;31.50;99.90
6865;DHT22;3471;49.678;8.388;2023-05-21T11:39:54;31.80;99.90
6865;DHT22;3471;49.678;8.388;2023-05-21T11:42:27;32.00;99.90
6865;DHT22;3471;49.678;8.388;2023-05-21T11:44:55;32.30;99.50
6865;DHT22;3471;49.678;8.388;2023-05-21T11:47:23;32.30;99.90
6865;DHT22;3471;49.678;8.388;2023-05-21T11:49:50;32.40;99.90
6865;DHT22;3471;49.678;8.388;2023-05-21T11:52:16;32.50;99.90
6865;DHT22;3471;49.678;8.388;2023-05-21T11:54:43;32.30;99.50
6865;DHT22;3471;49.678;8.388;2023-05-21T11:57:10;32.40;99.90
6865;DHT22;3471;49.678;8.388;2023-05-21T11:59:36;32.40;99.80
6865;DHT22;3471;49.678;8.388;2023-05-21T12:02:03;32.60;98.80
6865;DHT22;3471;49.678;8.388;2023-05-21T12:04:30;32.70;99.10
6865;DHT22;3471;49.678;8.388;2023-05-21T12:06:55;32.80;99.00
6865;DHT22;3471;49.678;8.388;2023-05-21T12:09:23;32.80;98.70
6865;DHT22;3471;49.678;8.388;2023-05-21T12:11:49;32.70;98.00
6865;DHT22;3471;49.678;8.388;2023-05-21T12:14:16;32.60;99.00
6865;DHT22;3471;49.678;8.388;2023-05-21T12:16:42;32.60;99.10
6865;DHT22;3471;49.678;8.388;2023-05-21T12:19:07;32.40;98.90
6865;DHT22;3471;49.678;8.388;2023-05-21T12:21:34;32.40;98.30
6865;DHT22;3471;49.678;8.388;2023-05-21T12:24:00;32.30;98.80
6865;DHT22;3471;49.678;8.388;2023-05-21T12:26:26;32.20;99.30
6865;DHT22;3471;49.678;8.388;2023-05-21T12:28:55;32.30;98.40
6865;DHT22;3471;49.678;8.388;2023-05-21T12:31:22;32.20;97.20
6865;DHT22;3471;49.678;8.388;2023-05-21T12:33:48;32.10;99.20
6865;DHT22;3471;49.678;8.388;2023-05-21T12:36:41;31.80;98.40
6865;DHT22;3471;49.678;8.388;2023-05-21T12:39:10;31.70;98.60
6865;DHT22;3471;49.678;8.388;2023-05-21T12:41:36;31.70;98.60
6865;DHT22;3471;49.678;8.388;2023-05-21T12:44:02;31.70;99.40
6865;DHT22;3471;49.678;8.388;2023-05-21T12:46:29;31.70;98.40
6865;DHT22;3471;49.678;8.388;2023-05-21T12:48:55;31.80;99.10
6865;DHT22;3471;49.678;8.388;2023-05-21T12:51:20;31.90;97.30
6865;DHT22;3471;49.678;8.388;2023-05-21T12:53:46;32.00;97.90
6865;DHT22;3471;49.678;8.388;2023-05-21T12:56:13;32.10;97.50
6865;DHT22;3471;49.678;8.388;2023-05-21T12:58:40;32.20;97.00
6865;DHT22;3471;49.678;8.388;2023-05-21T13:01:10;32.10;96.30
6865;DHT22;3471;49.678;8.388;2023-05-21T13:03:37;32.00;95.90
6865;DHT22;3471;49.678;8.388;2023-05-21T13:06:09;31.90;97.40
6865;DHT22;3471;49.678;8.388;2023-05-21T13:08:35;31.80;96.00
6865;DHT22;3471;49.678;8.388;2023-05-21T13:11:01;31.70;97.00
6865;DHT22;3471;49.678;8.388;2023-05-21T13:13:27;31.60;97.00
6865;DHT22;3471;49.678;8.388;2023-05-21T13:15:53;31.50;97.10
6865;DHT22;3471;49.678;8.388;2023-05-21T13:18:20;31.50;97.00
6865;DHT22;3471;49.678;8.388;2023-05-21T13:20:46;31.50;95.50
6865;DHT22;3471;49.678;8.388;2023-05-21T13:23:13;31.50;96.50
6865;DHT22;3471;49.678;8.388;2023-05-21T13:25:38;31.50;97.80
6865;DHT22;3471;49.678;8.388;2023-05-21T13:28:04;31.50;96.40
6865;DHT22;3471;49.678;8.388;2023-05-21T13:30:30;31.40;96.20
6865;DHT22;3471;49.678;8.388;2023-05-21T13:32:57;31.40;97.10
6865;DHT22;3471;49.678;8.388;2023-05-21T13:35:23;31.40;96.50
6865;DHT22;3471;49.678;8.388;2023-05-21T13:37:49;31.50;97.30
6865;DHT22;3471;49.678;8.388;2023-05-21T13:40:15;31.50;96.50
6865;DHT22;3471;49.678;8.388;2023-05-21T13:42:46;31.60;96.80
6865;DHT22;3471;49.678;8.388;2023-05-21T13:45:14;31.70;96.80
6865;DHT22;3471;49.678;8.388;2023-05-21T13:47:40;31.80;96.60
6865;DHT22;3471;49.678;8.388;2023-05-21T13:50:07;31.90;95.60
6865;DHT22;3471;49.678;8.388;2023-05-21T13:52:33;32.00;95.80
6865;DHT22;3471;49.678;8.388;2023-05-21T13:54:59;32.10;95.70
6865;DHT22;3471;49.678;8.388;2023-05-21T13:57:24;32.20;94.70
6865;DHT22;3471;49.678;8.388;2023-05-21T13:59:51;32.10;95.10
6865;DHT22;3471;49.678;8.388;2023-05-21T14:02:17;32.10;95.20
6865;DHT22;3471;49.678;8.388;2023-05-21T14:04:43;32.00;94.20
6865;DHT22;3471;49.678;8.388;2023-05-21T14:07:09;32.00;95.30
6865;DHT22;3471;49.678;8.388;2023-05-21T14:09:36;32.10;94.70
6865;DHT22;3471;49.678;8.388;2023-05-21T14:12:01;32.10;95.60
6865;DHT22;3471;49.678;8.388;2023-05-21T14:14:29;32.30;95.90
6865;DHT22;3471;49.678;8.388;2023-05-21T14:16:55;32.40;94.90
6865;DHT22;3471;49.678;8.388;2023-05-21T14:19:21;32.50;95.30
6865;DHT22;3471;49.678;8.388;2023-05-21T14:21:47;32.40;96.30
6865;DHT22;3471;49.678;8.388;2023-05-21T14:24:12;32.30;96.40
6865;DHT22;3471;49.678;8.388;2023-05-21T14:26:41;32.20;95.30
6865;DHT22;3471;49.678;8.388;2023-05-21T14:29:07;32.00;95.20
6865;DHT22;3471;49.678;8.388;2023-05-21T14:31:32;31.90;96.10
6865;DHT22;3471;49.678;8.388;2023-05-21T14:33:58;31.90;94.70
6865;DHT22;3471;49.678;8.388;2023-05-21T14:36:23;31.90;95.10
6865;DHT22;3471;49.678;8.388;2023-05-21T14:38:49;31.80;94.90
6865;DHT22;3471;49.678;8.388;2023-05-21T14:41:15;31.80;95.20
6865;DHT22;3471;49.678;8.388;2023-05-21T14:43:40;31.70;94.30
6865;DHT22;3471;49.678;8.388;2023-05-21T14:46:06;31.80;94.20
6865;DHT22;3471;49.678;8.388;2023-05-21T14:48:31;31.70;94.60
6865;DHT22;3471;49.678;8.388;2023-05-21T14:50:57;31.70;94.30
6865;DHT22;3471;49.678;8.388;2023-05-21T14:53:22;31.70;93.60
6865;DHT22;3471;49.678;8.388;2023-05-21T14:55:48;31.60;94.80
6865;DHT22;3471;49.678;8.388;2023-05-21T14:58:14;31.60;95.10
6865;DHT22;3471;49.678;8.388;2023-05-21T15:00:39;31.60;95.40
6865;DHT22;3471;49.678;8.388;2023-05-21T15:03:05;31.60;95.40
6865;DHT22;3471;49.678;8.388;2023-05-21T15:05:31;31.60;95.90
6865;DHT22;3471;49.678;8.388;2023-05-21T15:07:57;31.50;95.50
6865;DHT22;3471;49.678;8.388;2023-05-21T15:10:24;31.50;95.80
6865;DHT22;3471;49.678;8.388;2023-05-21T15:12:50;31.30;94.50
6865;DHT22;3471;49.678;8.388;2023-05-21T15:15:16;31.20;94.50
6865;DHT22;3471;49.678;8.388;2023-05-21T15:17:42;31.10;95.00
6865;DHT22;3471;49.678;8.388;2023-05-21T15:20:08;31.10;96.10
6865;DHT22;3471;49.678;8.388;2023-05-21T15:22:34;31.00;94.60
6865;DHT22;3471;49.678;8.388;2023-05-21T15:25:01;31.00;94.20
6865;DHT22;3471;49.678;8.388;2023-05-21T15:27:27;30.90;93.80
6865;DHT22;3471;49.678;8.388;2023-05-21T15:29:53;30.90;94.50
6865;DHT22;3471;49.678;8.388;2023-05-21T15:32:19;30.90;94.90
6865;DHT22;3471;49.678;8.388;2023-05-21T15:34:48;30.90;95.30
6865;DHT22;3471;49.678;8.388;2023-05-21T15:37:14;30.90;94.50
6865;DHT22;3471;49.678;8.388;2023-05-21T15:39:43;30.90;95.20
6865;DHT22;3471;49.678;8.388;2023-05-21T15:42:09;30.90;94.90
6865;DHT22;3471;49.678;8.388;2023-05-21T15:44:38;30.90;95.30
6865;DHT22;3471;49.678;8.388;2023-05-21T15:47:04;30.90;94.20
6865;DHT22;3471;49.678;8.388;2023-05-21T15:49:30;31.00;95.40
6865;DHT22;3471;49.678;8.388;2023-05-21T15:51:56;31.10;96.60
6865;DHT22;3471;49.678;8.388;2023-05-21T15:54:23;31.20;96.30
6865;DHT22;3471;49.678;8.388;2023-05-21T15:56:49;31.20;96.40
6865;DHT22;3471;49.678;8.388;2023-05-21T15:59:15;31.30;96.20
6865;DHT22;3471;49.678;8.388;2023-05-21T16:01:40;31.40;94.30
6865;DHT22;3471;49.678;8.388;2023-05-21T16:04:06;31.40;96.40
6865;DHT22;3471;49.678;8.388;2023-05-21T16:06:32;31.50;95.60
6865;DHT22;3471;49.678;8.388;2023-05-21T16:08:58;31.50;95.40
6865;DHT22;3471;49.678;8.388;2023-05-21T16:11:24;31.50;93.50
6865;DHT22;3471;49.678;8.388;2023-05-21T16:13:51;31.50;93.90
6865;DHT22;3471;49.678;8.388;2023-05-21T16:16:16;31.50;94.90
6865;DHT22;3471;49.678;8.388;2023-05-21T16:18:42;31.50;94.20
6865;DHT22;3471;49.678;8.388;2023-05-21T16:21:07;31.50;95.70
6865;DHT22;3471;49.678;8.388;2023-05-21T16:23:33;31.50;94.50
6865;DHT22;3471;49.678;8.388;2023-05-21T16:25:59;31.50;94.50